Buoy 51627

sailwx.info

Track history (hours):
 
Tides and Currents Weather Stations Pressure Air Temp Water Temp Dewpoint Dewpoint Depression Visibility Wind Speed Wind Dir Waves Ship Positions

Drifting buoy 51627

Last reported at 2016-Sep-30 13:00 UTC. Time now 2016-Sep-30 15:16 UTC.
Position N 17°18' E 125°51'.

Water temperature 29.6 ° C

Date/timePositionNaut miles runAvg speedWind from/ knotsBaromVisibWave heightAir tempDewpointWater temp
2016-Sep-30 13:00N 17°18' E 125°51'0 0.1 29.6
2016-Sep-30 11:00N 17°18' E 125°51'0 0.3 29.6
2016-Sep-30 10:00N 17°18' E 125°51'1 1.0 29.7
2016-Sep-30 09:00N 17°17' E 125°51'0 0.1 29.7
2016-Sep-30 08:00N 17°17' E 125°51'1 0.2 29.8
2016-Sep-30 05:00N 17°17' E 125°51'3 1.1 29.9
2016-Sep-30 02:00N 17°15' E 125°54'0 0.4 29.5
2016-Sep-30 01:00N 17°15' E 125°54'0 0.0 29.4
2016-Sep-30 00:00N 17°15' E 125°54'1 1.0 29.4
2016-Sep-29 23:00N 17°14' E 125°55'1 0.7 29.4
2016-Sep-29 22:00N 17°14' E 125°55'2 2.1 29.4
2016-Sep-29 21:00N 17°13' E 125°57'0 0.0 29.4
2016-Sep-29 20:00N 17°13' E 125°57'2 0.8 29.4
2016-Sep-29 18:00N 17°13' E 125°59'1 0.2 29.4
2016-Sep-29 13:00N 17°12' E 125°60'2 0.4 29.4
2016-Sep-29 08:00N 17°11' E 126°02'1 0.7 29.4
2016-Sep-29 06:00N 17°11' E 126°03'1 1.0 29.4
2016-Sep-29 05:00N 17°12' E 126°03'1 0.2 29.5
2016-Sep-29 02:00N 17°12' E 126°04'0 0.2 29.4
2016-Sep-29 01:00N 17°12' E 126°04'0 0.0 29.5
2016-Sep-28 23:00N 17°12' E 126°04'0 0.4 29.5
2016-Sep-28 22:00N 17°11' E 126°04'0 0.4 29.5
2016-Sep-28 21:00N 17°12' E 126°04'0 0.1 29.5
2016-Sep-28 18:00N 17°12' E 126°04'2 0.4 29.5
2016-Sep-28 13:00N 17°10' E 126°02'2 0.6 29.5
2016-Sep-28 10:00N 17°08' E 126°02'5 1.2 29.5
2016-Sep-28 06:00N 17°04' E 126°04'2 2.3 29.5
2016-Sep-28 05:00N 17°06' E 126°03'2 0.8 29.5
2016-Sep-28 02:00N 17°04' E 126°04'1 1.4 29.5
2016-Sep-28 01:00N 17°03' E 126°04'0 0.0 29.5
2016-Sep-28 00:00N 17°03' E 126°04'0 0.4 29.5
2016-Sep-27 23:00N 17°02' E 126°05'0 0.0 29.5
2016-Sep-27 22:00N 17°02' E 126°05'0 0.2 29.5
2016-Sep-27 21:00N 17°02' E 126°04'0 0.2 29.5
2016-Sep-27 20:00N 17°02' E 126°04'0 0.0 29.6
2016-Sep-27 19:00N 17°02' E 126°04'0 0.1 29.6
2016-Sep-27 18:00N 17°02' E 126°04'1 1.5 29.6
2016-Sep-27 17:00N 17°03' E 126°03'0 0.0 29.6
2016-Sep-27 13:00N 17°03' E 126°03'0 0.0 29.7
2016-Sep-27 12:00N 17°03' E 126°03'0 0.0 29.7
2016-Sep-27 11:00N 17°03' E 126°03'0 0.2 29.7
2016-Sep-27 10:00N 17°03' E 126°03'0 0.5 29.7
2016-Sep-27 09:00N 17°02' E 126°02'1 1.2 29.7
2016-Sep-27 08:00N 17°01' E 126°02'0 0.0 29.7
2016-Sep-27 07:00N 17°01' E 126°02'3 2.8 29.7
2016-Sep-27 06:00N 16°58' E 126°01'2 0.3 29.7
2016-Sep-27 01:00N 16°57' E 126°02'0 0.0 29.7
2016-Sep-27 00:00N 16°57' E 126°02'0 0.1 29.7
2016-Sep-26 23:00N 16°57' E 126°02'0 0.1 29.7
2016-Sep-26 21:00N 16°57' E 126°02'0 0.2 29.7
2016-Sep-26 20:00N 16°57' E 126°02'1 1.1 29.7
2016-Sep-26 19:00N 16°56' E 126°02'0 0.1 29.7
2016-Sep-26 13:00N 16°56' E 126°03'0 0.0 29.7
2016-Sep-26 12:00N 16°56' E 126°03'1 0.6 29.7
2016-Sep-26 10:00N 16°57' E 126°03'1 0.7 29.8
2016-Sep-26 09:00N 16°58' E 126°04'1 1.5 29.8
2016-Sep-26 08:00N 16°59' E 126°03'4 2.0 29.8
2016-Sep-26 06:00N 17°03' E 126°02'0 0.0 29.8
2016-Sep-26 04:00N 17°03' E 126°02'0 0.1 29.8
2016-Sep-26 01:00N 17°03' E 126°03'4 0.9 29.7
2016-Sep-25 21:00N 17°06' E 126°01'0 0.1 29.8
2016-Sep-25 20:00N 17°06' E 126°01'5 1.6 29.8
2016-Sep-25 17:00N 17°11' E 125°59'0 0.0 29.8
2016-Sep-25 14:00N 17°11' E 125°59'0 0.1 29.8
2016-Sep-25 12:00N 17°11' E 125°59'1 0.3 29.8
2016-Sep-25 10:00N 17°11' E 125°59'0 0.1 29.9
2016-Sep-25 09:00N 17°11' E 125°59'1 1.1 29.9
2016-Sep-25 08:00N 17°12' E 125°59'1 0.4 29.9
2016-Sep-25 06:00N 17°13' E 125°59'0 0.0 29.9
2016-Sep-25 05:00N 17°13' E 125°59'0 0.0 29.9
2016-Sep-25 04:00N 17°13' E 125°59'3 1.0 29.9
2016-Sep-25 01:00N 17°13' E 126°02'0 0.1 29.9
2016-Sep-24 22:00N 17°13' E 126°03'2 1.9 29.9
2016-Sep-24 21:00N 17°13' E 126°05'1 1.2 29.9
2016-Sep-24 20:00N 17°13' E 126°06'1 1.3 29.9
2016-Sep-24 19:00N 17°13' E 126°07'1 0.5 29.9
2016-Sep-24 17:00N 17°15' E 126°07'10 1.3 30.0
2016-Sep-24 09:00N 17°23' E 126°13'1 0.4 30.1
2016-Sep-24 06:00N 17°24' E 126°13'0 0.0 30.2
2016-Sep-24 05:00N 17°24' E 126°13'1 0.3 30.2
2016-Sep-24 01:00N 17°26' E 126°13'0 0.4 30.0
2016-Sep-24 00:00N 17°25' E 126°13'0 0.1 29.9
2016-Sep-23 22:00N 17°25' E 126°13'0 0.2 29.9
2016-Sep-23 21:00N 17°25' E 126°14'0 0.2 29.9
2016-Sep-23 20:00N 17°25' E 126°14'0 0.5 29.9
2016-Sep-23 19:00N 17°24' E 126°14'0 0.1 29.9
2016-Sep-23 17:00N 17°24' E 126°13'1 0.3 29.9
2016-Sep-23 14:00N 17°24' E 126°14'1 1.3 30.1
2016-Sep-23 13:00N 17°24' E 126°15'1 1.1 30.1
2016-Sep-23 12:00N 17°24' E 126°17'2 0.9 30.2
2016-Sep-23 10:00N 17°24' E 126°19'1 0.7 30.3
2016-Sep-23 09:00N 17°24' E 126°19'0 0.3 30.4
2016-Sep-23 08:00N 17°24' E 126°19'5 1.6 30.5
2016-Sep-23 05:00N 17°23' E 126°24'2 0.7 30.6
2016-Sep-23 02:00N 17°23' E 126°26'0 0.0 30.1
2016-Sep-23 01:00N 17°23' E 126°26'0 0.3 30.0
2016-Sep-23 00:00N 17°23' E 126°26'4 1.9 30.0
2016-Sep-22 22:00N 17°25' E 126°30'2 0.9 29.9
2016-Sep-22 20:00N 17°27' E 126°31'1 0.9 29.9
2016-Sep-22 19:00N 17°28' E 126°31'0 0.1 29.9
2016-Sep-22 18:00N 17°28' E 126°31'0 0.0 29.9
2016-Sep-22 17:00N 17°28' E 126°31'4 0.6 30.0
2016-Sep-22 11:00N 17°31' E 126°30'0 0.2 30.7
2016-Sep-22 09:00N 17°31' E 126°30'0 0.3 31.0
2016-Sep-22 08:00N 17°31' E 126°30'2 0.6 -0.0
2016-Sep-22 05:00N 17°29' E 126°29'3 0.9 30.9
2016-Sep-22 02:00N 17°27' E 126°29'1 0.7 30.4
2016-Sep-22 01:00N 17°26' E 126°29'0 0.1 30.1
2016-Sep-22 00:00N 17°26' E 126°29'2 1.7 29.8
2016-Sep-21 23:00N 17°25' E 126°30'0 0.4 29.8
2016-Sep-21 22:00N 17°25' E 126°30'5 1.2 29.7
2016-Sep-21 18:00N 17°23' E 126°35'7 1.3 29.8
2016-Sep-21 13:00N 17°24' E 126°41'0 0.0 29.8
2016-Sep-21 12:00N 17°24' E 126°41'2 1.2 29.8
2016-Sep-21 10:00N 17°26' E 126°43'1 1.3 29.9
2016-Sep-21 09:00N 17°27' E 126°44'3 3.1 29.9
2016-Sep-21 08:00N 17°30' E 126°46'0 0.0 30.0
2016-Sep-21 05:00N 17°30' E 126°46'4 0.9 29.9
2016-Sep-21 01:00N 17°32' E 126°43'0 0.0 29.7
2016-Sep-21 00:00N 17°32' E 126°43'0 0.0 29.7
2016-Sep-20 23:00N 17°32' E 126°43'1 0.7 29.7
2016-Sep-20 22:00N 17°31' E 126°43'0 0.3 29.7
2016-Sep-20 21:00N 17°31' E 126°42'0 0.0 29.7
2016-Sep-20 20:00N 17°31' E 126°42'4 2.1 29.7
2016-Sep-20 18:00N 17°27' E 126°43'0 0.0 29.7
2016-Sep-20 13:00N 17°27' E 126°43'   29.8
Track history (hours):
 
Tides and Currents Weather Stations Pressure Air Temp Water Temp Dewpoint Dewpoint Depression Visibility Wind Speed Wind Dir Waves Ship Positions

Drifting buoy 51627

Last reported at 2016-Sep-30 13:00 UTC. Time now 2016-Sep-30 15:16 UTC.
Position N 17°18' E 125°51'.

Water temperature 29.6 ° C

Date/timePositionNaut miles runAvg speedWind from/ knotsBaromVisibWave heightAir tempDewpointWater temp
2016-Sep-30 13:00N 17°18' E 125°51'0 0.1 29.6
2016-Sep-30 11:00N 17°18' E 125°51'0 0.3 29.6
2016-Sep-30 10:00N 17°18' E 125°51'1 1.0 29.7
2016-Sep-30 09:00N 17°17' E 125°51'0 0.1 29.7
2016-Sep-30 08:00N 17°17' E 125°51'1 0.2 29.8
2016-Sep-30 05:00N 17°17' E 125°51'3 1.1 29.9
2016-Sep-30 02:00N 17°15' E 125°54'0 0.4 29.5
2016-Sep-30 01:00N 17°15' E 125°54'0 0.0 29.4
2016-Sep-30 00:00N 17°15' E 125°54'1 1.0 29.4
2016-Sep-29 23:00N 17°14' E 125°55'1 0.7 29.4
2016-Sep-29 22:00N 17°14' E 125°55'2 2.1 29.4
2016-Sep-29 21:00N 17°13' E 125°57'0 0.0 29.4
2016-Sep-29 20:00N 17°13' E 125°57'2 0.8 29.4
2016-Sep-29 18:00N 17°13' E 125°59'1 0.2 29.4
2016-Sep-29 13:00N 17°12' E 125°60'2 0.4 29.4
2016-Sep-29 08:00N 17°11' E 126°02'1 0.7 29.4
2016-Sep-29 06:00N 17°11' E 126°03'1 1.0 29.4
2016-Sep-29 05:00N 17°12' E 126°03'1 0.2 29.5
2016-Sep-29 02:00N 17°12' E 126°04'0 0.2 29.4
2016-Sep-29 01:00N 17°12' E 126°04'0 0.0 29.5
2016-Sep-28 23:00N 17°12' E 126°04'0 0.4 29.5
2016-Sep-28 22:00N 17°11' E 126°04'0 0.4 29.5
2016-Sep-28 21:00N 17°12' E 126°04'0 0.1 29.5
2016-Sep-28 18:00N 17°12' E 126°04'2 0.4 29.5
2016-Sep-28 13:00N 17°10' E 126°02'2 0.6 29.5
2016-Sep-28 10:00N 17°08' E 126°02'5 1.2 29.5
2016-Sep-28 06:00N 17°04' E 126°04'2 2.3 29.5
2016-Sep-28 05:00N 17°06' E 126°03'2 0.8 29.5
2016-Sep-28 02:00N 17°04' E 126°04'1 1.4 29.5
2016-Sep-28 01:00N 17°03' E 126°04'0 0.0 29.5
2016-Sep-28 00:00N 17°03' E 126°04'0 0.4 29.5
2016-Sep-27 23:00N 17°02' E 126°05'0 0.0 29.5
2016-Sep-27 22:00N 17°02' E 126°05'0 0.2 29.5
2016-Sep-27 21:00N 17°02' E 126°04'0 0.2 29.5
2016-Sep-27 20:00N 17°02' E 126°04'0 0.0 29.6
2016-Sep-27 19:00N 17°02' E 126°04'0 0.1 29.6
2016-Sep-27 18:00N 17°02' E 126°04'1 1.5 29.6
2016-Sep-27 17:00N 17°03' E 126°03'0 0.0 29.6
2016-Sep-27 13:00N 17°03' E 126°03'0 0.0 29.7
2016-Sep-27 12:00N 17°03' E 126°03'0 0.0 29.7
2016-Sep-27 11:00N 17°03' E 126°03'0 0.2 29.7
2016-Sep-27 10:00N 17°03' E 126°03'0 0.5 29.7
2016-Sep-27 09:00N 17°02' E 126°02'1 1.2 29.7
2016-Sep-27 08:00N 17°01' E 126°02'0 0.0 29.7
2016-Sep-27 07:00N 17°01' E 126°02'3 2.8 29.7
2016-Sep-27 06:00N 16°58' E 126°01'2 0.3 29.7
2016-Sep-27 01:00N 16°57' E 126°02'0 0.0 29.7
2016-Sep-27 00:00N 16°57' E 126°02'0 0.1 29.7
2016-Sep-26 23:00N 16°57' E 126°02'0 0.1 29.7
2016-Sep-26 21:00N 16°57' E 126°02'0 0.2 29.7
2016-Sep-26 20:00N 16°57' E 126°02'1 1.1 29.7
2016-Sep-26 19:00N 16°56' E 126°02'0 0.1 29.7
2016-Sep-26 13:00N 16°56' E 126°03'0 0.0 29.7
2016-Sep-26 12:00N 16°56' E 126°03'1 0.6 29.7
2016-Sep-26 10:00N 16°57' E 126°03'1 0.7 29.8
2016-Sep-26 09:00N 16°58' E 126°04'1 1.5 29.8
2016-Sep-26 08:00N 16°59' E 126°03'4 2.0 29.8
2016-Sep-26 06:00N 17°03' E 126°02'0 0.0 29.8
2016-Sep-26 04:00N 17°03' E 126°02'0 0.1 29.8
2016-Sep-26 01:00N 17°03' E 126°03'4 0.9 29.7
2016-Sep-25 21:00N 17°06' E 126°01'0 0.1 29.8
2016-Sep-25 20:00N 17°06' E 126°01'5 1.6 29.8
2016-Sep-25 17:00N 17°11' E 125°59'0 0.0 29.8
2016-Sep-25 14:00N 17°11' E 125°59'0 0.1 29.8
2016-Sep-25 12:00N 17°11' E 125°59'1 0.3 29.8
2016-Sep-25 10:00N 17°11' E 125°59'0 0.1 29.9
2016-Sep-25 09:00N 17°11' E 125°59'1 1.1 29.9
2016-Sep-25 08:00N 17°12' E 125°59'1 0.4 29.9
2016-Sep-25 06:00N 17°13' E 125°59'0 0.0 29.9
2016-Sep-25 05:00N 17°13' E 125°59'0 0.0 29.9
2016-Sep-25 04:00N 17°13' E 125°59'3 1.0 29.9
2016-Sep-25 01:00N 17°13' E 126°02'0 0.1 29.9
2016-Sep-24 22:00N 17°13' E 126°03'2 1.9 29.9
2016-Sep-24 21:00N 17°13' E 126°05'1 1.2 29.9
2016-Sep-24 20:00N 17°13' E 126°06'1 1.3 29.9
2016-Sep-24 19:00N 17°13' E 126°07'1 0.5 29.9
2016-Sep-24 17:00N 17°15' E 126°07'10 1.3 30.0
2016-Sep-24 09:00N 17°23' E 126°13'1 0.4 30.1
2016-Sep-24 06:00N 17°24' E 126°13'0 0.0 30.2
2016-Sep-24 05:00N 17°24' E 126°13'1 0.3 30.2
2016-Sep-24 01:00N 17°26' E 126°13'0 0.4 30.0
2016-Sep-24 00:00N 17°25' E 126°13'0 0.1 29.9
2016-Sep-23 22:00N 17°25' E 126°13'0 0.2 29.9
2016-Sep-23 21:00N 17°25' E 126°14'0 0.2 29.9
2016-Sep-23 20:00N 17°25' E 126°14'0 0.5 29.9
2016-Sep-23 19:00N 17°24' E 126°14'0 0.1 29.9
2016-Sep-23 17:00N 17°24' E 126°13'1 0.3 29.9
2016-Sep-23 14:00N 17°24' E 126°14'1 1.3 30.1
2016-Sep-23 13:00N 17°24' E 126°15'1 1.1 30.1
2016-Sep-23 12:00N 17°24' E 126°17'2 0.9 30.2
2016-Sep-23 10:00N 17°24' E 126°19'1 0.7 30.3
2016-Sep-23 09:00N 17°24' E 126°19'0 0.3 30.4
2016-Sep-23 08:00N 17°24' E 126°19'5 1.6 30.5
2016-Sep-23 05:00N 17°23' E 126°24'2 0.7 30.6
2016-Sep-23 02:00N 17°23' E 126°26'0 0.0 30.1
2016-Sep-23 01:00N 17°23' E 126°26'0 0.3 30.0
2016-Sep-23 00:00N 17°23' E 126°26'4 1.9 30.0
2016-Sep-22 22:00N 17°25' E 126°30'2 0.9 29.9
2016-Sep-22 20:00N 17°27' E 126°31'1 0.9 29.9
2016-Sep-22 19:00N 17°28' E 126°31'0 0.1 29.9
2016-Sep-22 18:00N 17°28' E 126°31'0 0.0 29.9
2016-Sep-22 17:00N 17°28' E 126°31'4 0.6 30.0
2016-Sep-22 11:00N 17°31' E 126°30'0 0.2 30.7
2016-Sep-22 09:00N 17°31' E 126°30'0 0.3 31.0
2016-Sep-22 08:00N 17°31' E 126°30'2 0.6 -0.0
2016-Sep-22 05:00N 17°29' E 126°29'3 0.9 30.9
2016-Sep-22 02:00N 17°27' E 126°29'1 0.7 30.4
2016-Sep-22 01:00N 17°26' E 126°29'0 0.1 30.1
2016-Sep-22 00:00N 17°26' E 126°29'2 1.7 29.8
2016-Sep-21 23:00N 17°25' E 126°30'0 0.4 29.8
2016-Sep-21 22:00N 17°25' E 126°30'5 1.2 29.7
2016-Sep-21 18:00N 17°23' E 126°35'7 1.3 29.8
2016-Sep-21 13:00N 17°24' E 126°41'0 0.0 29.8
2016-Sep-21 12:00N 17°24' E 126°41'2 1.2 29.8
2016-Sep-21 10:00N 17°26' E 126°43'1 1.3 29.9
2016-Sep-21 09:00N 17°27' E 126°44'3 3.1 29.9
2016-Sep-21 08:00N 17°30' E 126°46'0 0.0 30.0
2016-Sep-21 05:00N 17°30' E 126°46'4 0.9 29.9
2016-Sep-21 01:00N 17°32' E 126°43'0 0.0 29.7
2016-Sep-21 00:00N 17°32' E 126°43'0 0.0 29.7
2016-Sep-20 23:00N 17°32' E 126°43'1 0.7 29.7
2016-Sep-20 22:00N 17°31' E 126°43'0 0.3 29.7
2016-Sep-20 21:00N 17°31' E 126°42'0 0.0 29.7
2016-Sep-20 20:00N 17°31' E 126°42'4 2.1 29.7
2016-Sep-20 18:00N 17°27' E 126°43'0 0.0 29.7
2016-Sep-20 13:00N 17°27' E 126°43'   29.8

Dump ship's entire track history